sensor_id;sensor_type;location;lat;lon;timestamp;pressure;altitude;pressure_sealevel;temperature;humidity
43115;BME280;28727;50.068;14.452;2022-07-18T00:00:36;100248.16;;;17.13;50.77
43115;BME280;28727;50.068;14.452;2022-07-18T00:03:08;100247.88;;;17.08;51.03
43115;BME280;28727;50.068;14.452;2022-07-18T00:05:41;100245.59;;;17.05;51.35
43115;BME280;28727;50.068;14.452;2022-07-18T00:08:13;100244.94;;;17.03;51.57
43115;BME280;28727;50.068;14.452;2022-07-18T00:10:44;100253.34;;;17.00;51.59
43115;BME280;28727;50.068;14.452;2022-07-18T00:13:16;100247.53;;;16.97;51.85
43115;BME280;28727;50.068;14.452;2022-07-18T00:15:48;100244.25;;;16.95;51.93
43115;BME280;28727;50.068;14.452;2022-07-18T00:18:19;100253.63;;;16.91;52.12
43115;BME280;28727;50.068;14.452;2022-07-18T00:20:51;100249.69;;;16.87;52.35
43115;BME280;28727;50.068;14.452;2022-07-18T00:23:23;100242.25;;;16.82;52.47
43115;BME280;28727;50.068;14.452;2022-07-18T00:25:57;100250.00;;;16.77;52.71
43115;BME280;28727;50.068;14.452;2022-07-18T00:28:29;100242.56;;;16.72;53.05
43115;BME280;28727;50.068;14.452;2022-07-18T00:31:00;100246.41;;;16.70;53.00
43115;BME280;28727;50.068;14.452;2022-07-18T00:33:32;100244.94;;;16.67;53.46
43115;BME280;28727;50.068;14.452;2022-07-18T00:36:05;100254.97;;;16.65;53.50
43115;BME280;28727;50.068;14.452;2022-07-18T00:38:38;100255.53;;;16.61;53.47
43115;BME280;28727;50.068;14.452;2022-07-18T00:41:14;100257.06;;;16.55;53.43
43115;BME280;28727;50.068;14.452;2022-07-18T00:43:46;100260.41;;;16.43;53.53
43115;BME280;28727;50.068;14.452;2022-07-18T00:46:22;100257.16;;;16.32;53.79
43115;BME280;28727;50.068;14.452;2022-07-18T00:48:54;100260.19;;;16.29;53.74
43115;BME280;28727;50.068;14.452;2022-07-18T00:51:26;100254.88;;;16.29;53.95
43115;BME280;28727;50.068;14.452;2022-07-18T00:53:58;100253.19;;;16.28;54.10
43115;BME280;28727;50.068;14.452;2022-07-18T00:56:30;100252.84;;;16.31;54.01
43115;BME280;28727;50.068;14.452;2022-07-18T00:59:03;100254.47;;;16.32;54.20
43115;BME280;28727;50.068;14.452;2022-07-18T01:01:35;100252.66;;;16.33;54.20
43115;BME280;28727;50.068;14.452;2022-07-18T01:04:22;100245.47;;;16.33;53.94
43115;BME280;28727;50.068;14.452;2022-07-18T01:06:55;100244.47;;;16.34;53.71
43115;BME280;28727;50.068;14.452;2022-07-18T01:09:27;100242.19;;;16.31;53.58
43115;BME280;28727;50.068;14.452;2022-07-18T01:11:59;100235.38;;;16.29;53.90
43115;BME280;28727;50.068;14.452;2022-07-18T01:14:32;100237.22;;;16.28;54.08
43115;BME280;28727;50.068;14.452;2022-07-18T01:17:15;100236.19;;;16.29;53.70
43115;BME280;28727;50.068;14.452;2022-07-18T01:19:47;100228.38;;;16.28;53.09
43115;BME280;28727;50.068;14.452;2022-07-18T01:22:19;100231.88;;;16.28;52.81
43115;BME280;28727;50.068;14.452;2022-07-18T01:24:51;100228.56;;;16.26;52.72
43115;BME280;28727;50.068;14.452;2022-07-18T01:27:23;100224.06;;;16.27;52.65
43115;BME280;28727;50.068;14.452;2022-07-18T01:29:54;100225.25;;;16.24;52.76
43115;BME280;28727;50.068;14.452;2022-07-18T01:32:26;100225.16;;;16.18;53.13
43115;BME280;28727;50.068;14.452;2022-07-18T01:34:58;100235.72;;;16.11;53.74
43115;BME280;28727;50.068;14.452;2022-07-18T01:37:29;100237.75;;;16.09;54.02
43115;BME280;28727;50.068;14.452;2022-07-18T01:40:10;100234.44;;;16.07;54.26
43115;BME280;28727;50.068;14.452;2022-07-18T01:42:43;100235.44;;;16.06;54.24
43115;BME280;28727;50.068;14.452;2022-07-18T01:45:15;100229.38;;;15.97;54.72
43115;BME280;28727;50.068;14.452;2022-07-18T01:47:47;100242.22;;;15.94;54.89
43115;BME280;28727;50.068;14.452;2022-07-18T01:50:19;100240.94;;;15.90;55.13
43115;BME280;28727;50.068;14.452;2022-07-18T01:52:51;100242.31;;;15.86;55.31
43115;BME280;28727;50.068;14.452;2022-07-18T01:55:24;100237.53;;;15.81;55.26
43115;BME280;28727;50.068;14.452;2022-07-18T01:57:56;100237.91;;;15.78;55.42
43115;BME280;28727;50.068;14.452;2022-07-18T02:00:27;100239.06;;;15.76;55.39
43115;BME280;28727;50.068;14.452;2022-07-18T02:02:59;100243.56;;;15.75;55.19
43115;BME280;28727;50.068;14.452;2022-07-18T02:05:31;100226.75;;;15.75;55.38
43115;BME280;28727;50.068;14.452;2022-07-18T02:08:03;100235.63;;;15.67;55.40
43115;BME280;28727;50.068;14.452;2022-07-18T02:10:38;100235.25;;;15.55;55.64
43115;BME280;28727;50.068;14.452;2022-07-18T02:13:09;100245.13;;;15.47;55.95
43115;BME280;28727;50.068;14.452;2022-07-18T02:15:41;100251.31;;;15.39;55.98
43115;BME280;28727;50.068;14.452;2022-07-18T02:18:13;100250.47;;;15.39;56.01
43115;BME280;28727;50.068;14.452;2022-07-18T02:20:44;100250.47;;;15.39;56.08
43115;BME280;28727;50.068;14.452;2022-07-18T02:23:16;100252.84;;;15.34;56.05
43115;BME280;28727;50.068;14.452;2022-07-18T02:25:48;100252.56;;;15.29;56.01
43115;BME280;28727;50.068;14.452;2022-07-18T02:28:21;100254.44;;;15.20;56.11
43115;BME280;28727;50.068;14.452;2022-07-18T02:30:53;100260.97;;;15.18;56.27
43115;BME280;28727;50.068;14.452;2022-07-18T02:33:25;100259.97;;;15.19;56.63
43115;BME280;28727;50.068;14.452;2022-07-18T02:35:56;100256.28;;;15.20;56.45
43115;BME280;28727;50.068;14.452;2022-07-18T02:38:28;100258.28;;;15.18;56.16
43115;BME280;28727;50.068;14.452;2022-07-18T02:41:00;100258.63;;;15.14;56.09
43115;BME280;28727;50.068;14.452;2022-07-18T02:43:31;100259.00;;;15.11;56.18
43115;BME280;28727;50.068;14.452;2022-07-18T02:46:03;100255.50;;;15.11;56.13
43115;BME280;28727;50.068;14.452;2022-07-18T02:48:35;100256.50;;;15.10;56.19
43115;BME280;28727;50.068;14.452;2022-07-18T02:51:15;100257.69;;;15.07;56.24
43115;BME280;28727;50.068;14.452;2022-07-18T02:53:46;100259.53;;;15.07;56.25
43115;BME280;28727;50.068;14.452;2022-07-18T02:56:18;100255.03;;;15.07;56.14
43115;BME280;28727;50.068;14.452;2022-07-18T02:58:50;100246.22;;;15.07;55.66
43115;BME280;28727;50.068;14.452;2022-07-18T03:01:21;100247.38;;;15.04;55.92
43115;BME280;28727;50.068;14.452;2022-07-18T03:03:53;100244.72;;;15.04;56.05
43115;BME280;28727;50.068;14.452;2022-07-18T03:06:25;100259.03;;;15.03;55.52
43115;BME280;28727;50.068;14.452;2022-07-18T03:08:57;100249.59;;;15.01;55.73
43115;BME280;28727;50.068;14.452;2022-07-18T03:11:28;100242.59;;;15.00;55.78
43115;BME280;28727;50.068;14.452;2022-07-18T03:14:00;100244.13;;;14.94;55.74
43115;BME280;28727;50.068;14.452;2022-07-18T03:16:34;100246.13;;;14.92;56.02
43115;BME280;28727;50.068;14.452;2022-07-18T03:19:06;100253.28;;;14.92;55.98
43115;BME280;28727;50.068;14.452;2022-07-18T03:21:37;100256.13;;;14.90;55.90
43115;BME280;28727;50.068;14.452;2022-07-18T03:24:09;100251.97;;;14.88;56.35
43115;BME280;28727;50.068;14.452;2022-07-18T03:26:42;100257.63;;;14.85;56.16
43115;BME280;28727;50.068;14.452;2022-07-18T03:29:14;100254.97;;;14.85;56.55
43115;BME280;28727;50.068;14.452;2022-07-18T03:31:46;100258.47;;;14.85;56.22
43115;BME280;28727;50.068;14.452;2022-07-18T03:34:18;100255.16;;;14.83;56.17
43115;BME280;28727;50.068;14.452;2022-07-18T03:36:50;100251.84;;;14.81;56.71
43115;BME280;28727;50.068;14.452;2022-07-18T03:39:21;100255.16;;;14.83;56.32
43115;BME280;28727;50.068;14.452;2022-07-18T03:41:53;100257.81;;;14.83;56.57
43115;BME280;28727;50.068;14.452;2022-07-18T03:44:25;100256.63;;;14.86;56.69
43115;BME280;28727;50.068;14.452;2022-07-18T03:46:56;100255.31;;;14.90;56.73
43115;BME280;28727;50.068;14.452;2022-07-18T03:49:28;100256.78;;;14.92;56.70
43115;BME280;28727;50.068;14.452;2022-07-18T03:52:00;100259.25;;;14.94;56.78
43115;BME280;28727;50.068;14.452;2022-07-18T03:54:31;100256.78;;;14.92;57.03
43115;BME280;28727;50.068;14.452;2022-07-18T03:57:03;100264.59;;;14.94;56.78
43115;BME280;28727;50.068;14.452;2022-07-18T03:59:35;100255.31;;;14.90;56.91
43115;BME280;28727;50.068;14.452;2022-07-18T04:02:07;100255.47;;;14.88;57.06
43115;BME280;28727;50.068;14.452;2022-07-18T04:04:38;100251.44;;;14.92;57.12
43115;BME280;28727;50.068;14.452;2022-07-18T04:07:10;100257.91;;;14.98;57.20
43115;BME280;28727;50.068;14.452;2022-07-18T04:09:42;100243.91;;;15.04;57.51
43115;BME280;28727;50.068;14.452;2022-07-18T04:12:13;100250.50;;;15.08;57.47
43115;BME280;28727;50.068;14.452;2022-07-18T04:14:45;100245.41;;;15.06;56.92
43115;BME280;28727;50.068;14.452;2022-07-18T04:17:17;100252.25;;;15.01;56.83
43115;BME280;28727;50.068;14.452;2022-07-18T04:19:48;100253.63;;;14.89;57.04
43115;BME280;28727;50.068;14.452;2022-07-18T04:22:20;100254.97;;;14.85;57.13
43115;BME280;28727;50.068;14.452;2022-07-18T04:24:52;100251.69;;;14.83;57.73
43115;BME280;28727;50.068;14.452;2022-07-18T04:27:27;100248.16;;;14.90;57.77
43115;BME280;28727;50.068;14.452;2022-07-18T04:29:58;100247.75;;;15.01;57.38
43115;BME280;28727;50.068;14.452;2022-07-18T04:32:30;100243.19;;;15.10;57.39
43115;BME280;28727;50.068;14.452;2022-07-18T04:35:02;100246.66;;;15.19;57.40
43115;BME280;28727;50.068;14.452;2022-07-18T04:37:34;100247.25;;;15.29;57.72
43115;BME280;28727;50.068;14.452;2022-07-18T04:40:08;100246.41;;;15.28;57.66
43115;BME280;28727;50.068;14.452;2022-07-18T04:42:39;100246.25;;;15.30;57.60
43115;BME280;28727;50.068;14.452;2022-07-18T04:45:11;100241.38;;;15.33;57.35
43115;BME280;28727;50.068;14.452;2022-07-18T04:47:43;100243.00;;;15.42;56.90
43115;BME280;28727;50.068;14.452;2022-07-18T04:50:15;100239.25;;;15.51;56.52
43115;BME280;28727;50.068;14.452;2022-07-18T04:52:47;100243.44;;;15.46;56.49
43115;BME280;28727;50.068;14.452;2022-07-18T04:55:23;100236.28;;;15.54;56.38
43115;BME280;28727;50.068;14.452;2022-07-18T04:57:58;100239.78;;;15.70;56.21
43115;BME280;28727;50.068;14.452;2022-07-18T05:00:29;100253.34;;;15.83;55.69
43115;BME280;28727;50.068;14.452;2022-07-18T05:03:01;100255.19;;;15.97;55.14
43115;BME280;28727;50.068;14.452;2022-07-18T05:05:33;100250.69;;;15.97;56.15
43115;BME280;28727;50.068;14.452;2022-07-18T05:08:07;100248.16;;;16.19;56.15
43115;BME280;28727;50.068;14.452;2022-07-18T05:10:39;100251.66;;;16.49;55.21
43115;BME280;28727;50.068;14.452;2022-07-18T05:13:11;100252.34;;;16.87;54.23
43115;BME280;28727;50.068;14.452;2022-07-18T05:15:43;100238.19;;;17.22;53.23
43115;BME280;28727;50.068;14.452;2022-07-18T05:18:15;100241.88;;;17.42;52.07
43115;BME280;28727;50.068;14.452;2022-07-18T05:20:47;100243.13;;;17.61;51.23
43115;BME280;28727;50.068;14.452;2022-07-18T05:23:19;100240.69;;;17.66;51.09
43115;BME280;28727;50.068;14.452;2022-07-18T05:25:51;100236.25;;;17.80;50.96
43115;BME280;28727;50.068;14.452;2022-07-18T05:28:22;100240.69;;;17.94;50.02
43115;BME280;28727;50.068;14.452;2022-07-18T05:30:54;100236.34;;;18.14;49.07
43115;BME280;28727;50.068;14.452;2022-07-18T05:33:26;100237.13;;;18.42;48.11
43115;BME280;28727;50.068;14.452;2022-07-18T05:36:04;100234.19;;;18.72;47.62
43115;BME280;28727;50.068;14.452;2022-07-18T05:38:35;100231.19;;;18.95;47.30
43115;BME280;28727;50.068;14.452;2022-07-18T05:41:07;100225.06;;;19.20;46.35
43115;BME280;28727;50.068;14.452;2022-07-18T05:43:39;100224.69;;;19.43;45.77
43115;BME280;28727;50.068;14.452;2022-07-18T05:46:11;100222.69;;;19.65;45.05
43115;BME280;28727;50.068;14.452;2022-07-18T05:48:51;100226.59;;;19.89;44.83
43115;BME280;28727;50.068;14.452;2022-07-18T05:51:22;100216.88;;;20.08;43.74
43115;BME280;28727;50.068;14.452;2022-07-18T05:53:54;100221.59;;;20.25;43.20
43115;BME280;28727;50.068;14.452;2022-07-18T05:56:26;100222.81;;;20.36;42.26
43115;BME280;28727;50.068;14.452;2022-07-18T05:58:58;100214.28;;;20.52;42.17
43115;BME280;28727;50.068;14.452;2022-07-18T06:01:30;100214.03;;;20.73;42.01
43115;BME280;28727;50.068;14.452;2022-07-18T06:04:02;100219.06;;;20.95;41.66
43115;BME280;28727;50.068;14.452;2022-07-18T06:06:33;100230.75;;;21.13;40.92
43115;BME280;28727;50.068;14.452;2022-07-18T06:09:05;100226.34;;;21.32;41.45
43115;BME280;28727;50.068;14.452;2022-07-18T06:11:37;100224.69;;;21.56;41.17
43115;BME280;28727;50.068;14.452;2022-07-18T06:14:09;100228.22;;;21.81;40.58
43115;BME280;28727;50.068;14.452;2022-07-18T06:16:41;100219.47;;;22.11;39.82
43115;BME280;28727;50.068;14.452;2022-07-18T06:19:14;100217.84;;;22.28;39.15
43115;BME280;28727;50.068;14.452;2022-07-18T06:21:51;100222.56;;;22.51;38.94
43115;BME280;28727;50.068;14.452;2022-07-18T06:24:23;100226.69;;;22.71;38.75
43115;BME280;28727;50.068;14.452;2022-07-18T06:26:55;100226.13;;;22.99;37.64
43115;BME280;28727;50.068;14.452;2022-07-18T06:29:26;100229.38;;;23.19;37.31
43115;BME280;28727;50.068;14.452;2022-07-18T06:31:59;100219.09;;;23.40;37.10
43115;BME280;28727;50.068;14.452;2022-07-18T06:34:31;100222.34;;;23.48;36.21
43115;BME280;28727;50.068;14.452;2022-07-18T06:37:03;100223.53;;;23.64;36.18
43115;BME280;28727;50.068;14.452;2022-07-18T06:39:37;100213.94;;;23.91;36.01
43115;BME280;28727;50.068;14.452;2022-07-18T06:42:09;100208.41;;;24.21;35.63
43115;BME280;28727;50.068;14.452;2022-07-18T06:44:42;100214.97;;;24.48;35.72
43115;BME280;28727;50.068;14.452;2022-07-18T06:47:14;100212.06;;;24.78;35.13
43115;BME280;28727;50.068;14.452;2022-07-18T06:49:45;100211.63;;;24.70;34.42
43115;BME280;28727;50.068;14.452;2022-07-18T06:52:17;100219.13;;;24.79;33.95
43115;BME280;28727;50.068;14.452;2022-07-18T06:54:49;100213.69;;;24.91;33.46
43115;BME280;28727;50.068;14.452;2022-07-18T06:57:21;100209.06;;;25.03;33.01
43115;BME280;28727;50.068;14.452;2022-07-18T06:59:52;100212.19;;;25.12;32.75
43115;BME280;28727;50.068;14.452;2022-07-18T07:02:29;100212.72;;;25.25;32.18
43115;BME280;28727;50.068;14.452;2022-07-18T07:05:01;100209.53;;;25.45;32.17
43115;BME280;28727;50.068;14.452;2022-07-18T07:07:32;100210.88;;;25.59;31.25
43115;BME280;28727;50.068;14.452;2022-07-18T07:10:04;100208.41;;;25.58;31.25
43115;BME280;28727;50.068;14.452;2022-07-18T07:12:51;100211.31;;;25.68;31.13
43115;BME280;28727;50.068;14.452;2022-07-18T07:15:23;100208.50;;;25.80;30.74
43115;BME280;28727;50.068;14.452;2022-07-18T07:17:55;100200.38;;;25.96;30.51
43115;BME280;28727;50.068;14.452;2022-07-18T07:20:27;100208.75;;;26.17;30.30
43115;BME280;28727;50.068;14.452;2022-07-18T07:22:59;100207.38;;;26.31;29.04
43115;BME280;28727;50.068;14.452;2022-07-18T07:25:37;100202.47;;;26.11;29.14
43115;BME280;28727;50.068;14.452;2022-07-18T07:28:10;100201.81;;;26.04;29.15
43115;BME280;28727;50.068;14.452;2022-07-18T07:30:42;100195.13;;;25.90;29.27
43115;BME280;28727;50.068;14.452;2022-07-18T07:33:14;100191.66;;;25.94;29.27
43115;BME280;28727;50.068;14.452;2022-07-18T07:35:47;100192.78;;;26.15;28.70
43115;BME280;28727;50.068;14.452;2022-07-18T07:38:19;100197.44;;;26.20;28.75
43115;BME280;28727;50.068;14.452;2022-07-18T07:40:51;100196.19;;;26.27;28.85
43115;BME280;28727;50.068;14.452;2022-07-18T07:43:23;100187.22;;;26.65;29.11
43115;BME280;28727;50.068;14.452;2022-07-18T07:45:56;100186.34;;;27.08;28.17
43115;BME280;28727;50.068;14.452;2022-07-18T07:48:27;100180.03;;;27.29;27.35
43115;BME280;28727;50.068;14.452;2022-07-18T07:50:59;100187.66;;;27.06;27.24
43115;BME280;28727;50.068;14.452;2022-07-18T07:53:31;100187.75;;;27.16;27.94
43115;BME280;28727;50.068;14.452;2022-07-18T07:56:03;100182.78;;;27.35;27.35
43115;BME280;28727;50.068;14.452;2022-07-18T07:58:38;100178.91;;;27.57;27.48
43115;BME280;28727;50.068;14.452;2022-07-18T08:01:13;100174.63;;;27.61;27.24
43115;BME280;28727;50.068;14.452;2022-07-18T08:03:50;100185.19;;;27.58;26.94
43115;BME280;28727;50.068;14.452;2022-07-18T08:06:21;100180.75;;;27.84;26.96
43115;BME280;28727;50.068;14.452;2022-07-18T08:08:53;100182.16;;;28.33;26.44
43115;BME280;28727;50.068;14.452;2022-07-18T08:11:29;100181.97;;;28.55;26.17
43115;BME280;28727;50.068;14.452;2022-07-18T08:14:01;100175.03;;;29.00;25.06
43115;BME280;28727;50.068;14.452;2022-07-18T08:16:33;100178.38;;;29.37;24.01
43115;BME280;28727;50.068;14.452;2022-07-18T08:19:05;100166.91;;;29.70;23.49
43115;BME280;28727;50.068;14.452;2022-07-18T08:21:37;100163.06;;;29.87;23.60
43115;BME280;28727;50.068;14.452;2022-07-18T08:24:09;100161.22;;;29.67;23.48
43115;BME280;28727;50.068;14.452;2022-07-18T08:26:41;100158.75;;;29.70;23.36
43115;BME280;28727;50.068;14.452;2022-07-18T08:29:12;100157.91;;;29.85;23.17
43115;BME280;28727;50.068;14.452;2022-07-18T08:31:44;100156.00;;;30.01;22.83
43115;BME280;28727;50.068;14.452;2022-07-18T08:34:16;100161.47;;;29.86;22.80
43115;BME280;28727;50.068;14.452;2022-07-18T08:36:49;100157.66;;;29.92;23.37
43115;BME280;28727;50.068;14.452;2022-07-18T08:39:21;100166.34;;;29.99;23.14
43115;BME280;28727;50.068;14.452;2022-07-18T08:41:54;100160.34;;;29.87;24.00
43115;BME280;28727;50.068;14.452;2022-07-18T08:44:34;100157.63;;;29.87;23.19
43115;BME280;28727;50.068;14.452;2022-07-18T08:47:07;100159.28;;;29.83;22.75
43115;BME280;28727;50.068;14.452;2022-07-18T08:49:39;100154.63;;;29.93;22.70
43115;BME280;28727;50.068;14.452;2022-07-18T08:52:10;100155.31;;;30.39;22.36
43115;BME280;28727;50.068;14.452;2022-07-18T08:55:00;100151.44;;;31.00;21.30
43115;BME280;28727;50.068;14.452;2022-07-18T08:57:31;100149.28;;;31.36;20.72
43115;BME280;28727;50.068;14.452;2022-07-18T09:00:08;100148.75;;;31.67;21.03
43115;BME280;28727;50.068;14.452;2022-07-18T09:02:43;100142.50;;;31.91;20.44
43115;BME280;28727;50.068;14.452;2022-07-18T09:05:19;100146.03;;;31.91;20.04
43115;BME280;28727;50.068;14.452;2022-07-18T09:08:14;100139.81;;;31.57;20.92
43115;BME280;28727;50.068;14.452;2022-07-18T09:10:56;100140.28;;;31.69;20.12
43115;BME280;28727;50.068;14.452;2022-07-18T09:16:06;100153.31;;;30.60;21.69
43115;BME280;28727;50.068;14.452;2022-07-18T09:18:45;100147.72;;;30.85;21.53
43115;BME280;28727;50.068;14.452;2022-07-18T09:21:22;100150.47;;;31.24;21.16
43115;BME280;28727;50.068;14.452;2022-07-18T09:23:54;100138.38;;;31.64;19.60
43115;BME280;28727;50.068;14.452;2022-07-18T09:26:37;100136.66;;;31.74;18.82
43115;BME280;28727;50.068;14.452;2022-07-18T09:29:18;100147.06;;;31.09;18.99
43115;BME280;28727;50.068;14.452;2022-07-18T09:31:59;100142.19;;;30.96;18.54
43115;BME280;28727;50.068;14.452;2022-07-18T09:34:38;100141.31;;;30.61;19.38
43115;BME280;28727;50.068;14.452;2022-07-18T09:37:11;100146.28;;;30.49;19.72
43115;BME280;28727;50.068;14.452;2022-07-18T09:39:43;100141.72;;;30.83;19.19
43115;BME280;28727;50.068;14.452;2022-07-18T09:42:16;100137.00;;;31.04;18.56
43115;BME280;28727;50.068;14.452;2022-07-18T09:44:58;100133.41;;;31.09;18.62
43115;BME280;28727;50.068;14.452;2022-07-18T09:47:55;100130.59;;;31.19;18.29
43115;BME280;28727;50.068;14.452;2022-07-18T09:50:33;100127.38;;;31.41;18.76
43115;BME280;28727;50.068;14.452;2022-07-18T09:53:34;100128.28;;;31.31;19.01
43115;BME280;28727;50.068;14.452;2022-07-18T09:56:13;100126.38;;;31.31;18.90
43115;BME280;28727;50.068;14.452;2022-07-18T09:58:54;100121.91;;;30.68;19.79
43115;BME280;28727;50.068;14.452;2022-07-18T10:01:27;100125.31;;;30.34;19.88
43115;BME280;28727;50.068;14.452;2022-07-18T10:03:59;100123.94;;;30.42;20.12
43115;BME280;28727;50.068;14.452;2022-07-18T10:06:32;100116.63;;;30.32;20.14
43115;BME280;28727;50.068;14.452;2022-07-18T10:09:04;100123.59;;;30.59;20.52
43115;BME280;28727;50.068;14.452;2022-07-18T10:11:36;100114.28;;;30.65;20.64
43115;BME280;28727;50.068;14.452;2022-07-18T10:14:08;100114.69;;;30.87;19.51
43115;BME280;28727;50.068;14.452;2022-07-18T10:16:42;100115.41;;;31.03;19.42
43115;BME280;28727;50.068;14.452;2022-07-18T10:19:17;100104.22;;;31.38;19.77
43115;BME280;28727;50.068;14.452;2022-07-18T10:21:49;100102.91;;;31.59;18.73
43115;BME280;28727;50.068;14.452;2022-07-18T10:24:23;100109.56;;;31.19;19.17
43115;BME280;28727;50.068;14.452;2022-07-18T10:27:18;100107.06;;;31.23;19.07
43115;BME280;28727;50.068;14.452;2022-07-18T10:30:10;100103.06;;;31.44;18.76
43115;BME280;28727;50.068;14.452;2022-07-18T10:32:43;100099.34;;;31.30;18.68
43115;BME280;28727;50.068;14.452;2022-07-18T10:35:16;100098.59;;;31.24;19.19
43115;BME280;28727;50.068;14.452;2022-07-18T10:37:47;100097.25;;;31.22;19.29
43115;BME280;28727;50.068;14.452;2022-07-18T10:40:29;100096.09;;;31.28;19.46
43115;BME280;28727;50.068;14.452;2022-07-18T10:46:03;100099.56;;;31.00;19.19
43115;BME280;28727;50.068;14.452;2022-07-18T10:51:07;100096.38;;;30.87;19.27
43115;BME280;28727;50.068;14.452;2022-07-18T10:54:13;100098.38;;;30.77;19.55
43115;BME280;28727;50.068;14.452;2022-07-18T10:57:04;100083.47;;;31.03;19.50
43115;BME280;28727;50.068;14.452;2022-07-18T10:59:36;100079.53;;;31.19;19.34
43115;BME280;28727;50.068;14.452;2022-07-18T11:02:08;100073.28;;;31.43;19.53
43115;BME280;28727;50.068;14.452;2022-07-18T11:04:40;100078.19;;;31.75;19.15
43115;BME280;28727;50.068;14.452;2022-07-18T11:07:13;100084.16;;;32.00;19.11
43115;BME280;28727;50.068;14.452;2022-07-18T11:09:46;100074.91;;;31.96;19.03
43115;BME280;28727;50.068;14.452;2022-07-18T11:12:30;100076.63;;;32.11;18.07
43115;BME280;28727;50.068;14.452;2022-07-18T11:15:13;100066.72;;;32.39;17.66
43115;BME280;28727;50.068;14.452;2022-07-18T11:17:55;100062.50;;;32.65;18.33
43115;BME280;28727;50.068;14.452;2022-07-18T11:20:40;100072.56;;;32.51;17.78
43115;BME280;28727;50.068;14.452;2022-07-18T11:23:19;100064.78;;;32.58;17.55
43115;BME280;28727;50.068;14.452;2022-07-18T11:25:56;100063.09;;;32.62;17.77
43115;BME280;28727;50.068;14.452;2022-07-18T11:28:30;100062.03;;;32.58;17.65
43115;BME280;28727;50.068;14.452;2022-07-18T11:31:04;100061.41;;;32.66;17.74
43115;BME280;28727;50.068;14.452;2022-07-18T11:33:39;100051.56;;;32.84;17.84
43115;BME280;28727;50.068;14.452;2022-07-18T11:36:13;100059.59;;;32.94;17.76
43115;BME280;28727;50.068;14.452;2022-07-18T11:38:52;100049.38;;;32.67;17.88
43115;BME280;28727;50.068;14.452;2022-07-18T11:41:24;100050.31;;;32.39;18.01
43115;BME280;28727;50.068;14.452;2022-07-18T11:43:56;100044.97;;;32.29;18.31
43115;BME280;28727;50.068;14.452;2022-07-18T11:46:28;100041.50;;;32.42;18.35
43115;BME280;28727;50.068;14.452;2022-07-18T11:49:03;100042.75;;;32.49;19.39
43115;BME280;28727;50.068;14.452;2022-07-18T11:51:41;100044.91;;;32.71;18.00
43115;BME280;28727;50.068;14.452;2022-07-18T11:54:22;100041.63;;;32.88;17.67
43115;BME280;28727;50.068;14.452;2022-07-18T11:56:54;100042.47;;;32.70;18.07
43115;BME280;28727;50.068;14.452;2022-07-18T11:59:40;100021.72;;;32.82;17.78
43115;BME280;28727;50.068;14.452;2022-07-18T12:02:15;100029.84;;;32.74;18.61
43115;BME280;28727;50.068;14.452;2022-07-18T12:04:46;100030.63;;;32.37;18.28
43115;BME280;28727;50.068;14.452;2022-07-18T12:07:20;100015.72;;;32.05;18.02
43115;BME280;28727;50.068;14.452;2022-07-18T12:09:54;100016.16;;;31.75;18.93
43115;BME280;28727;50.068;14.452;2022-07-18T12:12:27;100018.63;;;31.71;19.15
43115;BME280;28727;50.068;14.452;2022-07-18T12:14:59;100020.88;;;31.88;19.05
43115;BME280;28727;50.068;14.452;2022-07-18T12:17:42;100026.66;;;31.87;19.25
43115;BME280;28727;50.068;14.452;2022-07-18T12:20:20;100015.00;;;31.52;19.29
43115;BME280;28727;50.068;14.452;2022-07-18T12:23:09;100017.50;;;31.49;19.63
43115;BME280;28727;50.068;14.452;2022-07-18T12:25:45;100017.00;;;31.70;19.62
43115;BME280;28727;50.068;14.452;2022-07-18T12:28:18;100021.63;;;31.75;19.80
43115;BME280;28727;50.068;14.452;2022-07-18T12:30:50;100024.69;;;31.68;19.50
43115;BME280;28727;50.068;14.452;2022-07-18T12:33:30;100011.78;;;31.93;20.00
43115;BME280;28727;50.068;14.452;2022-07-18T12:36:02;100004.78;;;32.05;19.24
43115;BME280;28727;50.068;14.452;2022-07-18T12:38:33;100009.97;;;32.07;18.92
43115;BME280;28727;50.068;14.452;2022-07-18T12:41:05;100003.31;;;31.94;19.97
43115;BME280;28727;50.068;14.452;2022-07-18T12:43:38;100004.97;;;31.71;20.60
43115;BME280;28727;50.068;14.452;2022-07-18T12:46:10;100001.59;;;31.56;20.04
43115;BME280;28727;50.068;14.452;2022-07-18T12:48:42;99997.28;;;31.50;19.68
43115;BME280;28727;50.068;14.452;2022-07-18T12:51:14;99997.91;;;31.42;19.60
43115;BME280;28727;50.068;14.452;2022-07-18T12:53:46;99985.38;;;31.64;19.83
43115;BME280;28727;50.068;14.452;2022-07-18T12:56:17;99986.13;;;31.70;20.01
43115;BME280;28727;50.068;14.452;2022-07-18T12:58:49;99986.72;;;31.67;20.72
43115;BME280;28727;50.068;14.452;2022-07-18T13:01:24;99987.00;;;31.65;21.20
43115;BME280;28727;50.068;14.452;2022-07-18T13:03:58;99991.16;;;31.63;20.51
43115;BME280;28727;50.068;14.452;2022-07-18T13:06:29;99985.47;;;31.54;20.53
43115;BME280;28727;50.068;14.452;2022-07-18T13:09:01;99987.41;;;31.54;20.15
43115;BME280;28727;50.068;14.452;2022-07-18T13:11:33;99981.06;;;31.58;19.79
43115;BME280;28727;50.068;14.452;2022-07-18T13:14:05;99985.91;;;31.66;19.85
43115;BME280;28727;50.068;14.452;2022-07-18T13:16:37;99990.34;;;31.81;19.67
43115;BME280;28727;50.068;14.452;2022-07-18T13:19:09;99981.16;;;31.96;19.66
43115;BME280;28727;50.068;14.452;2022-07-18T13:21:42;99983.28;;;31.99;19.64